Time;durP1;ratioP1;P1;durP2;ratioP2;P2;SDS_P1;SDS_P2;PMS_P1;PMS_P2;Temp;Humidity;BMP_temperature;BMP_pressure;BME280_temperature;BME280_humidity;BME280_pressure;Samples;Min_cycle;Max_cycle;Signal;HPM_P1;HPM_P2
2020/12/14 00:00:15;;;;;;;25.80;14.40;;;;;;;3.65;71.49;100215.38;124445;1098;104544;-76
2020/12/14 00:02:44;;;;;;;21.03;12.27;;;;;;;3.63;70.96;100216.45;124470;1098;104826;-76
2020/12/14 00:05:13;;;;;;;19.87;13.03;;;;;;;3.61;71.36;100218.36;124437;1098;104531;-75
2020/12/14 00:07:41;;;;;;;19.97;12.97;;;;;;;3.61;71.09;100218.36;124425;1098;104513;-74
2020/12/14 00:10:10;;;;;;;21.50;13.70;;;;;;;3.65;71.71;100211.91;124555;1098;104598;-72
2020/12/14 00:12:38;;;;;;;21.17;12.43;;;;;;;3.67;70.81;100217.91;124440;1098;104499;-72
2020/12/14 00:15:06;;;;;;;19.60;12.47;;;;;;;3.68;71.49;100220.45;124447;1098;104667;-74
2020/12/14 00:17:34;;;;;;;20.97;12.23;;;;;;;3.71;70.63;100222.02;124394;1098;104493;-73
2020/12/14 00:20:03;;;;;;;21.23;12.80;;;;;;;3.70;70.71;100218.55;124431;1098;104519;-74
2020/12/14 00:22:32;;;;;;;25.23;15.63;;;;;;;3.70;70.57;100218.55;124547;1098;104602;-75
2020/12/14 00:25:01;;;;;;;22.30;13.03;;;;;;;3.70;70.63;100217.70;124455;1098;104602;-75
2020/12/14 00:27:30;;;;;;;19.13;10.77;;;;;;;3.66;71.26;100222.36;124445;1098;104940;-75
2020/12/14 00:29:58;;;;;;;18.00;10.83;;;;;;;3.66;71.04;100226.80;124415;1098;104494;-73
2020/12/14 00:32:26;;;;;;;19.93;12.60;;;;;;;3.68;71.36;100230.17;124443;1098;104653;-74
2020/12/14 00:34:54;;;;;;;18.83;11.33;;;;;;;3.67;71.44;100229.30;124431;1098;104653;-75
2020/12/14 00:37:23;;;;;;;19.67;11.03;;;;;;;3.68;70.65;100231.00;124430;1098;104579;-75
2020/12/14 00:39:51;;;;;;;19.87;12.20;;;;;;;3.69;70.71;100242.39;124445;1098;104608;-74
2020/12/14 00:42:19;;;;;;;20.83;12.03;;;;;;;3.69;70.71;100237.95;124423;1098;104762;-76
2020/12/14 00:44:48;;;;;;;23.73;12.87;;;;;;;3.69;71.47;100237.11;124405;1098;104589;-73
2020/12/14 00:47:18;;;;;;;23.37;14.20;;;;;;;3.65;70.77;100241.77;124404;1098;105053;-76
2020/12/14 00:49:46;;;;;;;25.17;16.43;;;;;;;3.61;70.66;100245.58;124400;1098;104513;-76
2020/12/14 00:52:14;;;;;;;18.07;11.40;;;;;;;3.61;71.20;100250.86;124447;1098;104659;-77
2020/12/14 00:54:42;;;;;;;18.63;10.73;;;;;;;3.61;71.28;100244.74;124402;1098;104628;-74
2020/12/14 00:57:10;;;;;;;15.37;10.03;;;;;;;3.62;70.78;100251.69;124430;1098;105025;-74
2020/12/14 00:59:38;;;;;;;17.53;10.40;;;;;;;3.61;71.39;100250.86;124455;1098;104596;-75
2020/12/14 01:02:07;;;;;;;18.07;10.77;;;;;;;3.63;71.37;100259.50;124463;1098;104520;-75
2020/12/14 01:04:35;;;;;;;17.60;11.17;;;;;;;3.63;71.40;100256.03;124418;1098;104938;-76
2020/12/14 01:07:03;;;;;;;18.43;12.10;;;;;;;3.64;71.33;100244.53;124469;1098;105063;-75
2020/12/14 01:09:31;;;;;;;19.33;11.73;;;;;;;3.67;70.71;100245.14;124418;1098;104570;-74
2020/12/14 01:12:03;;;;;;;18.80;11.33;;;;;;;3.69;71.20;100255.59;124437;1098;104621;-74
2020/12/14 01:14:31;;;;;;;17.48;11.50;;;;;;;3.68;70.88;100251.28;124498;1098;104526;-75
2020/12/14 01:16:59;;;;;;;16.67;10.00;;;;;;;3.65;71.09;100248.84;124357;1098;104613;-77
2020/12/14 01:19:27;;;;;;;15.67;8.97;;;;;;;3.64;71.05;100241.90;124412;1098;104589;-77
2020/12/14 01:21:55;;;;;;;17.90;10.53;;;;;;;3.62;70.79;100246.41;124428;1098;104665;-76
2020/12/14 01:24:23;;;;;;;17.60;10.35;;;;;;;3.64;70.97;100263.01;124372;1098;105050;-75
2020/12/14 01:26:52;;;;;;;18.57;11.07;;;;;;;3.65;70.67;100262.04;124333;1098;104605;-74
2020/12/14 01:29:20;;;;;;;18.50;11.15;;;;;;;3.69;71.44;100256.42;124420;1098;104518;-74
2020/12/14 01:31:48;;;;;;;18.80;11.93;;;;;;;3.70;70.94;100262.56;124451;1098;104584;-75
2020/12/14 01:34:16;;;;;;;20.67;12.57;;;;;;;3.69;70.48;100258.23;124405;1098;104559;-73
2020/12/14 01:36:48;;;;;;;22.17;12.23;;;;;;;3.67;70.95;100262.77;124408;1098;104599;-74
2020/12/14 01:39:17;;;;;;;18.00;10.63;;;;;;;3.66;70.70;100258.46;124410;1098;104515;-74
2020/12/14 01:41:45;;;;;;;18.63;11.20;;;;;;;3.64;71.30;100258.56;124461;1098;104478;-74
2020/12/14 01:44:13;;;;;;;21.67;13.03;;;;;;;3.61;70.82;100257.94;124420;1098;104587;-73
2020/12/14 01:46:45;;;;;;;21.73;13.50;;;;;;;3.61;71.40;100261.41;124414;1098;104568;-74
2020/12/14 01:49:13;;;;;;;23.70;13.85;;;;;;;3.62;71.29;100263.11;124423;1098;104533;-73
2020/12/14 01:51:43;;;;;;;24.13;14.23;;;;;;;3.65;70.97;100268.16;124438;1098;104634;-76
2020/12/14 01:54:22;;;;;;;26.57;15.23;;;;;;;3.66;70.55;100269.86;124388;1098;104880;-76
2020/12/14 01:56:50;;;;;;;24.13;14.07;;;;;;;3.66;70.60;100269.02;124413;1098;104612;-73
2020/12/14 01:59:18;;;;;;;25.67;15.30;;;;;;;3.65;71.10;100277.87;124408;1098;104529;-74
2020/12/14 02:01:47;;;;;;;24.50;15.00;;;;;;;3.66;71.06;100269.02;124435;1098;104557;-73
2020/12/14 02:04:15;;;;;;;20.57;12.37;;;;;;;3.62;70.91;100259.60;124436;1098;104541;-74
2020/12/14 02:06:43;;;;;;;24.07;14.43;;;;;;;3.61;70.61;100263.21;124432;1098;104577;-76
2020/12/14 02:09:11;;;;;;;24.13;15.10;;;;;;;3.62;71.10;100272.80;124406;1098;104598;-74
2020/12/14 02:11:39;;;;;;;23.43;13.57;;;;;;;3.63;70.77;100277.14;124470;1098;104603;-74
2020/12/14 02:14:08;;;;;;;23.37;13.87;;;;;;;3.65;71.16;100277.87;124405;1098;104603;-73
2020/12/14 02:16:36;;;;;;;25.70;15.00;;;;;;;3.67;71.06;100286.52;124426;1098;104561;-74
2020/12/14 02:19:04;;;;;;;28.83;17.07;;;;;;;3.68;70.65;100278.50;124452;1098;104602;-74
2020/12/14 02:21:32;;;;;;;28.47;16.17;;;;;;;3.68;71.41;100277.67;124454;1098;104563;-76
2020/12/14 02:24:00;;;;;;;27.20;16.20;;;;;;;3.69;70.57;100279.34;124435;1098;104609;-73
2020/12/14 02:26:28;;;;;;;22.30;12.85;;;;;;;3.64;71.23;100276.20;124441;1098;104538;-73
2020/12/14 02:28:57;;;;;;;33.20;19.17;;;;;;;3.61;70.66;100282.52;124458;1098;104510;-74
2020/12/14 02:31:25;;;;;;;27.53;17.00;;;;;;;3.61;71.16;100276.41;124473;1098;104692;-73
2020/12/14 02:33:53;;;;;;;30.50;19.23;;;;;;;3.61;71.54;100271.13;124395;1098;104599;-74
2020/12/14 02:36:21;;;;;;;29.53;18.53;;;;;;;3.62;71.00;100265.75;124421;1098;104939;-75
2020/12/14 02:38:49;;;;;;;29.73;16.87;;;;;;;3.64;71.11;100263.01;124427;1098;104570;-75
2020/12/14 02:41:17;;;;;;;28.63;16.97;;;;;;;3.65;71.07;100267.31;124409;1098;104679;-75
2020/12/14 02:43:45;;;;;;;28.43;16.70;;;;;;;3.65;71.19;100262.88;124451;1098;104545;-74
2020/12/14 02:46:14;;;;;;;26.90;15.60;;;;;;;3.65;71.38;100268.16;124378;1098;104605;-73
2020/12/14 02:48:42;;;;;;;25.30;14.95;;;;;;;3.65;70.74;100272.59;124451;1098;104558;-75
2020/12/14 02:51:10;;;;;;;22.93;13.00;;;;;;;3.65;71.29;100272.59;124469;1098;104621;-75
2020/12/14 02:53:38;;;;;;;21.53;12.43;;;;;;;3.65;70.56;100278.70;124416;1098;104525;-74
2020/12/14 02:56:07;;;;;;;21.80;13.33;;;;;;;3.65;71.49;100278.70;124477;1098;104563;-75
2020/12/14 02:58:35;;;;;;;24.87;14.20;;;;;;;3.68;70.95;100275.03;124482;1098;104605;-76
2020/12/14 03:01:04;;;;;;;24.50;14.20;;;;;;;3.73;70.61;100280.80;124492;1098;104606;-77
2020/12/14 03:03:32;;;;;;;23.47;14.33;;;;;;;3.74;71.15;100285.98;124395;1098;104574;-76
2020/12/14 03:06:00;;;;;;;24.77;14.93;;;;;;;3.78;71.43;100286.61;124411;1098;104621;-75
2020/12/14 03:08:28;;;;;;;26.67;15.23;;;;;;;3.81;70.52;100294.33;124409;1098;104605;-73
2020/12/14 03:10:56;;;;;;;26.45;14.75;;;;;;;3.83;70.80;100291.55;124459;1098;104666;-74
2020/12/14 03:13:25;;;;;;;26.63;15.53;;;;;;;3.84;71.01;100296.73;124435;1098;104532;-75
2020/12/14 03:15:53;;;;;;;20.80;12.13;;;;;;;3.82;70.93;100301.27;124524;1098;104589;-75
2020/12/14 03:18:21;;;;;;;20.03;12.10;;;;;;;3.82;71.31;100306.55;124509;1098;104573;-74
2020/12/14 03:20:49;;;;;;;22.07;13.37;;;;;;;3.83;70.58;100302.97;124455;1098;104669;-76
2020/12/14 03:23:17;;;;;;;23.00;13.63;;;;;;;3.84;70.55;100294.09;124412;1098;104581;-76
2020/12/14 03:25:45;;;;;;;25.10;14.00;;;;;;;3.81;71.02;100294.33;124427;1098;104579;-77
2020/12/14 03:28:14;;;;;;;25.60;14.93;;;;;;;3.81;71.36;100296.09;124413;1098;104523;-74
2020/12/14 03:30:42;;;;;;;25.47;14.43;;;;;;;3.80;70.57;100299.70;124440;1098;104647;-75
2020/12/14 03:33:10;;;;;;;28.97;15.30;;;;;;;3.78;71.19;100301.61;124391;1098;104517;-75
2020/12/14 03:35:38;;;;;;;26.40;15.27;;;;;;;3.74;70.89;100298.34;124433;1098;104608;-73
2020/12/14 03:38:06;;;;;;;28.30;16.40;;;;;;;3.72;70.55;100300.25;124441;1098;104955;-75
2020/12/14 03:40:34;;;;;;;20.07;12.17;;;;;;;3.66;70.61;100290.97;124449;1098;104624;-74
2020/12/14 03:43:03;;;;;;;23.23;12.83;;;;;;;3.63;70.98;100291.16;124543;1098;104542;-74
2020/12/14 03:45:31;;;;;;;24.25;13.80;;;;;;;3.62;70.59;100289.50;124424;1098;104991;-76
2020/12/14 03:47:59;;;;;;;26.30;14.00;;;;;;;3.64;71.34;100289.39;124434;1098;104522;-75
2020/12/14 03:50:27;;;;;;;23.27;14.07;;;;;;;3.64;71.39;100292.03;124458;1098;104619;-73
2020/12/14 03:52:55;;;;;;;25.83;15.70;;;;;;;3.62;70.22;100293.91;124530;1098;104645;-73
2020/12/14 03:55:24;;;;;;;28.17;17.20;;;;;;;3.63;71.31;100292.97;124320;1098;104611;-76
2020/12/14 03:57:52;;;;;;;30.67;18.47;;;;;;;3.61;70.68;100294.87;124407;1098;104897;-74
2020/12/14 04:00:20;;;;;;;30.53;18.47;;;;;;;3.58;71.37;100295.94;124410;1098;104615;-74
2020/12/14 04:02:48;;;;;;;43.27;26.80;;;;;;;3.54;71.47;100297.08;124420;1098;104538;-76
2020/12/14 04:05:16;;;;;;;56.17;37.70;;;;;;;3.53;71.38;100295.41;124657;1098;104519;-77
2020/12/14 04:07:44;;;;;;;42.97;29.83;;;;;;;3.56;70.79;100295.21;124440;1098;104529;-76
2020/12/14 04:10:13;;;;;;;39.50;26.60;;;;;;;3.59;71.50;100288.86;124737;1098;104967;-77
2020/12/14 04:12:41;;;;;;;40.10;24.33;;;;;;;3.62;70.77;100294.77;124497;1098;104493;-75
2020/12/14 04:15:09;;;;;;;42.67;25.20;;;;;;;3.64;71.13;100286.75;124437;1098;104640;-76
2020/12/14 04:17:38;;;;;;;57.20;28.97;;;;;;;3.64;71.09;100284.12;124570;1098;105540;-76
2020/12/14 04:20:06;;;;;;;62.30;29.20;;;;;;;3.64;70.70;100287.59;124566;1098;104640;-75
2020/12/14 04:22:35;;;;;;;48.67;23.37;;;;;;;3.65;70.96;100293.70;124544;1098;104593;-76
2020/12/14 04:25:03;;;;;;;54.45;24.90;;;;;;;3.66;71.09;100293.60;124546;1098;104576;-75
2020/12/14 04:27:31;;;;;;;43.67;20.53;;;;;;;3.67;70.69;100292.63;124453;1098;104650;-75
2020/12/14 04:29:59;;;;;;;39.57;19.10;;;;;;;3.65;71.04;100298.98;124497;1098;104584;-76
2020/12/14 04:32:28;;;;;;;36.83;19.67;;;;;;;3.66;71.37;100292.77;124379;1098;104533;-77
2020/12/14 04:34:56;;;;;;;33.60;18.90;;;;;;;3.67;71.40;100300.55;124419;1098;104595;-75
2020/12/14 04:37:24;;;;;;;30.97;17.23;;;;;;;3.70;71.53;100296.88;124398;1098;104568;-75
2020/12/14 04:39:52;;;;;;;44.17;26.80;;;;;;;3.74;71.46;100312.38;124389;1098;104496;-75
2020/12/14 04:42:21;;;;;;;64.60;33.97;;;;;;;3.76;71.45;100306.98;124459;1098;104671;-74
2020/12/14 04:44:52;;;;;;;52.53;26.20;;;;;;;3.76;70.69;100306.98;124465;1098;104570;-76
2020/12/14 04:47:21;;;;;;;54.97;25.77;;;;;;;3.76;70.84;100317.55;124437;1098;104525;-75
2020/12/14 04:49:49;;;;;;;48.23;22.87;;;;;;;3.74;70.58;100319.45;124468;1098;104755;-75
2020/12/14 04:52:22;;;;;;;35.27;19.00;;;;;;;3.72;71.30;100329.28;124455;1098;104604;-75
2020/12/14 04:54:50;;;;;;;28.43;15.13;;;;;;;3.69;71.37;100332.11;124392;1098;104500;-75
2020/12/14 04:57:21;;;;;;;26.67;14.97;;;;;;;3.68;70.60;100341.00;124427;1098;105053;-77
2020/12/14 04:59:51;;;;;;;31.13;16.80;;;;;;;3.64;71.45;100347.45;124481;1098;104509;-77
2020/12/14 05:02:19;;;;;;;28.63;15.97;;;;;;;3.62;71.47;100349.31;124428;1098;104586;-75
2020/12/14 05:04:47;;;;;;;29.30;16.25;;;;;;;3.65;71.45;100357.03;124425;1098;104532;-75
2020/12/14 05:07:15;;;;;;;30.20;17.17;;;;;;;3.68;70.66;100352.39;124439;1098;104516;-75
2020/12/14 05:09:44;;;;;;;28.17;16.13;;;;;;;3.67;70.89;100365.69;124467;1098;105023;-73
2020/12/14 05:12:22;;;;;;;29.27;16.03;;;;;;;3.66;71.05;100364.85;124421;1098;104615;-76
2020/12/14 05:14:51;;;;;;;28.17;15.30;;;;;;;3.62;70.93;100373.06;124418;1098;104522;-75
2020/12/14 05:17:25;;;;;;;25.50;13.77;;;;;;;3.60;70.74;100375.83;124413;1098;104608;-76
2020/12/14 05:19:54;;;;;;;24.27;13.40;;;;;;;3.62;71.08;100376.57;124491;1098;104999;-75
2020/12/14 05:22:22;;;;;;;28.23;14.40;;;;;;;3.63;70.69;100383.52;124399;1098;104567;-75
2020/12/14 05:24:51;;;;;;;25.43;14.13;;;;;;;3.63;71.42;100380.05;124402;1098;104564;-75
2020/12/14 05:27:32;;;;;;;29.67;15.63;;;;;;;3.59;71.31;100382.05;124476;1098;104914;-76
2020/12/14 05:30:00;;;;;;;29.53;15.80;;;;;;;3.63;71.08;100393.23;124419;1098;104588;-75
2020/12/14 05:32:28;;;;;;;31.17;16.10;;;;;;;3.63;70.93;100394.08;124411;1098;104568;-75
2020/12/14 05:34:57;;;;;;;29.73;15.80;;;;;;;3.63;71.42;100401.16;124518;1098;104503;-75
2020/12/14 05:37:25;;;;;;;32.10;17.50;;;;;;;3.62;71.50;100399.45;124411;1098;104967;-75
2020/12/14 05:39:53;;;;;;;31.37;17.10;;;;;;;3.60;71.09;100391.66;124469;1098;104646;-76
2020/12/14 05:42:23;;;;;;;24.70;13.60;;;;;;;3.61;71.47;100397.78;124416;1098;104599;-75
2020/12/14 05:44:52;;;;;;;26.33;14.57;;;;;;;3.61;70.67;100405.70;124486;1098;104634;-76
2020/12/14 05:47:29;;;;;;;27.45;15.10;;;;;;;3.58;70.65;100400.61;124433;1098;104496;-76
2020/12/14 05:49:59;;;;;;;28.97;15.37;;;;;;;3.58;71.40;100403.25;124483;1098;104522;-76
2020/12/14 05:52:32;;;;;;;28.30;16.17;;;;;;;3.56;71.43;100406.02;124391;1098;104581;-76
2020/12/14 05:55:01;;;;;;;30.80;16.40;;;;;;;3.60;70.84;100406.63;124454;1098;104526;-77
2020/12/14 05:57:34;;;;;;;29.37;15.73;;;;;;;3.59;70.66;100399.68;124471;1098;104529;-77
2020/12/14 06:00:06;;;;;;;29.77;17.13;;;;;;;3.51;71.07;100398.40;124486;1098;104635;-75
2020/12/14 06:02:35;;;;;;;29.57;16.13;;;;;;;3.48;71.39;100403.90;124464;1098;104529;-75
2020/12/14 06:05:06;;;;;;;25.70;15.13;;;;;;;3.41;70.73;100399.14;124431;1098;104496;-76
2020/12/14 06:07:35;;;;;;;29.13;15.43;;;;;;;3.39;70.96;100401.88;124387;1098;104563;-75
2020/12/14 06:10:09;;;;;;;29.53;16.77;;;;;;;3.40;70.83;100400.91;124491;1098;104797;-76
2020/12/14 06:12:41;;;;;;;33.30;17.67;;;;;;;3.42;70.77;100409.56;124472;1098;104611;-74
2020/12/14 06:15:11;;;;;;;32.05;16.40;;;;;;;3.42;70.53;100409.56;124580;1098;104497;-76
2020/12/14 06:17:40;;;;;;;38.17;23.27;;;;;;;3.41;71.73;100407.89;124420;1098;104526;-75
2020/12/14 06:20:15;;;;;;;420.27;306.10;;;;;;;3.42;70.79;100404.29;124432;1098;104727;-75
2020/12/14 06:22:47;;;;;;;115.77;61.20;;;;;;;3.42;70.96;100398.18;124539;1098;104525;-75
2020/12/14 06:25:17;;;;;;;63.25;33.30;;;;;;;3.38;71.64;100399.34;124423;1098;104573;-75
2020/12/14 06:27:45;;;;;;;224.13;115.37;;;;;;;3.34;71.59;100411.88;124530;1098;104525;-75
2020/12/14 06:30:33;;;;;;;133.80;73.13;;;;;;;3.35;71.22;100413.59;124521;1098;104667;-75
2020/12/14 06:33:05;;;;;;;166.83;97.83;;;;;;;3.38;71.67;100417.80;124460;1098;104606;-75
2020/12/14 06:35:47;;;;;;;320.85;210.10;;;;;;;3.41;71.72;100418.45;124419;1098;104602;-75
2020/12/14 06:38:36;;;;;;;191.90;110.33;;;;;;;3.41;70.79;100423.72;124521;1098;104490;-75
2020/12/14 06:41:10;;;;;;;92.80;49.15;;;;;;;3.41;71.62;100423.72;124601;1098;104670;-75
2020/12/14 06:43:38;;;;;;;86.57;50.13;;;;;;;3.42;71.20;100422.75;124520;1098;104514;-75
2020/12/14 06:46:07;;;;;;;60.80;32.07;;;;;;;3.41;70.50;100429.00;124477;1098;104545;-75
2020/12/14 06:48:43;;;;;;;50.47;28.87;;;;;;;3.37;70.80;100435.42;124443;1098;104557;-77
2020/12/14 06:51:13;;;;;;;88.40;66.33;;;;;;;3.37;70.92;100427.52;124521;1098;104685;-76
2020/12/14 06:53:47;;;;;;;104.53;68.17;;;;;;;3.37;71.05;100432.79;124496;1098;104510;-77
2020/12/14 06:56:39;;;;;;;359.10;246.73;;;;;;;3.40;71.68;100427.29;124462;1098;104538;-74
2020/12/14 06:59:28;;;;;;;370.67;225.27;;;;;;;3.40;70.62;100431.73;124531;1098;104593;-75
2020/12/14 07:01:58;;;;;;;429.87;292.13;;;;;;;3.37;70.90;100435.42;124466;1098;104603;-80
2020/12/14 07:04:41;;;;;;;561.50;453.20;;;;;;;3.36;70.58;100432.89;124467;1098;104615;-76
2020/12/14 07:07:31;;;;;;;316.83;184.47;;;;;;;3.31;71.17;100428.77;124497;1098;104497;-77
2020/12/14 07:10:16;;;;;;;181.13;107.87;;;;;;;3.32;72.06;100434.88;124608;1098;104575;-77
2020/12/14 07:12:48;;;;;;;194.93;150.37;;;;;;;3.34;71.97;100433.81;124521;1098;104936;-79
2020/12/14 07:15:32;;;;;;;160.10;108.70;;;;;;;3.37;71.30;100431.92;124495;1098;104536;-78
2020/12/14 07:18:10;;;;;;;147.93;97.97;;;;;;;3.37;71.65;100443.34;124524;1098;104493;-78
2020/12/14 07:20:56;;;;;;;87.70;55.77;;;;;;;3.38;71.66;100439.73;124472;1098;104597;-79
2020/12/14 07:23:27;;;;;;;73.60;50.30;;;;;;;3.34;70.99;100444.37;124496;1098;105454;-76
2020/12/14 07:25:56;;;;;;;74.33;48.90;;;;;;;3.35;70.66;100442.59;124484;1098;104526;-77
2020/12/14 07:28:39;;;;;;;74.17;48.20;;;;;;;3.34;71.56;100444.37;124464;1098;104599;-78
2020/12/14 07:31:12;;;;;;;49.25;29.05;;;;;;;3.31;70.54;100441.09;124573;1098;104484;-77
2020/12/14 07:33:49;;;;;;;40.10;24.37;;;;;;;3.36;70.81;100453.98;124548;1098;105132;-78
2020/12/14 07:36:17;;;;;;;54.53;37.60;;;;;;;3.38;70.83;100442.38;124594;1098;104638;-78
2020/12/14 07:38:48;;;;;;;54.20;35.05;;;;;;;3.42;71.75;100441.22;124424;1098;104603;-78
2020/12/14 07:41:16;;;;;;;40.87;26.17;;;;;;;3.44;71.33;100444.59;124440;1098;104631;-78
2020/12/14 07:43:50;;;;;;;56.10;35.67;;;;;;;3.40;71.56;100445.75;124558;1098;104653;-77
2020/12/14 07:46:24;;;;;;;38.30;23.33;;;;;;;3.40;71.54;100453.67;124539;1098;104600;-79
2020/12/14 07:49:01;;;;;;;55.57;35.23;;;;;;;3.37;71.12;100456.53;124490;1098;104720;-77
2020/12/14 07:51:30;;;;;;;47.47;24.90;;;;;;;3.33;70.32;100452.41;124479;1098;104980;-77
2020/12/14 07:54:20;;;;;;;39.87;23.13;;;;;;;3.33;71.54;100457.69;124510;1098;104621;-77
2020/12/14 07:56:56;;;;;;;35.67;20.47;;;;;;;3.35;71.50;100455.79;124593;1098;104585;-77
2020/12/14 07:59:27;;;;;;;33.37;19.40;;;;;;;3.35;71.13;100466.34;124437;1098;104516;-78
2020/12/14 08:01:57;;;;;;;32.17;18.60;;;;;;;3.38;70.84;100466.11;124480;1098;104525;-78
2020/12/14 08:04:27;;;;;;;28.45;17.20;;;;;;;3.38;71.03;100471.39;124516;1098;104516;-79
2020/12/14 08:06:56;;;;;;;31.30;18.70;;;;;;;3.34;71.50;100469.91;124511;1098;104633;-77
2020/12/14 08:09:28;;;;;;;34.67;19.97;;;;;;;3.28;71.82;100468.52;124467;1098;104523;-79
2020/12/14 08:11:57;;;;;;;31.60;19.55;;;;;;;3.29;71.57;100469.36;124453;1098;104538;-79
2020/12/14 08:14:27;;;;;;;28.70;16.40;;;;;;;3.27;71.45;100464.20;124584;1098;104769;-77
2020/12/14 08:16:55;;;;;;;25.90;15.33;;;;;;;3.21;70.55;100461.11;124477;1098;104564;-78
2020/12/14 08:19:24;;;;;;;24.33;15.47;;;;;;;3.15;71.35;100459.72;124492;1098;104669;-77
2020/12/14 08:22:07;;;;;;;26.90;15.67;;;;;;;3.15;71.47;100460.55;124585;1098;104567;-77
2020/12/14 08:24:37;;;;;;;25.87;16.00;;;;;;;3.16;70.89;100458.79;124566;1098;105067;-81
2020/12/14 08:27:07;;;;;;;28.25;14.90;;;;;;;3.19;70.48;100453.30;124584;1098;104530;-78
2020/12/14 08:29:41;;;;;;;28.03;16.93;;;;;;;3.23;70.42;100461.85;124532;1098;104602;-78
2020/12/14 08:32:14;;;;;;;26.40;14.60;;;;;;;3.28;70.88;100467.68;124556;1093;104578;-80
2020/12/14 08:34:43;;;;;;;25.50;16.13;;;;;;;3.28;71.82;100465.05;124534;1098;104688;-78
2020/12/14 08:37:11;;;;;;;31.40;19.40;;;;;;;3.30;71.44;100468.42;124504;1098;104675;-77
2020/12/14 08:39:39;;;;;;;29.20;17.63;;;;;;;3.32;71.55;100466.53;124444;1098;104532;-78
2020/12/14 08:42:12;;;;;;;27.20;15.13;;;;;;;3.34;71.08;100475.18;124472;1098;104580;-77
2020/12/14 08:44:41;;;;;;;30.47;18.03;;;;;;;3.39;70.73;100477.50;124586;1098;104602;-78
2020/12/14 08:47:17;;;;;;;50.33;29.80;;;;;;;3.44;71.53;100476.25;124477;1098;104562;-80
2020/12/14 08:49:45;;;;;;;30.90;18.03;;;;;;;3.53;71.59;100482.72;124536;1098;104538;-77
2020/12/14 08:52:23;;;;;;;45.43;24.70;;;;;;;3.65;71.10;100476.61;124505;1098;104536;-78
2020/12/14 08:54:55;;;;;;;42.47;27.03;;;;;;;3.69;71.40;100472.81;124554;1098;104656;-79
2020/12/14 08:57:25;;;;;;;38.47;21.83;;;;;;;3.76;70.68;100470.63;124687;1098;104580;-78
2020/12/14 09:00:01;;;;;;;31.80;18.20;;;;;;;3.80;70.84;100472.10;124530;1098;104605;-77
2020/12/14 09:02:29;;;;;;;41.97;23.80;;;;;;;3.86;71.40;100476.12;124518;1098;104569;-77
2020/12/14 09:04:57;;;;;;;33.20;19.27;;;;;;;3.91;70.55;100469.58;124506;1098;104641;-78
2020/12/14 09:07:27;;;;;;;33.63;19.73;;;;;;;3.97;70.33;100478.04;124455;1098;104616;-80
2020/12/14 09:09:55;;;;;;;33.07;19.00;;;;;;;3.98;70.25;100477.07;124507;1098;104541;-79
2020/12/14 09:12:27;;;;;;;26.47;15.47;;;;;;;3.90;70.61;100467.87;124432;1098;104518;-78
2020/12/14 09:15:04;;;;;;;31.70;16.83;;;;;;;3.83;70.19;100461.34;124564;1098;104627;-78
2020/12/14 09:17:33;;;;;;;44.17;23.57;;;;;;;3.80;70.33;100463.34;124476;1098;104692;-78
2020/12/14 09:20:03;;;;;;;31.95;18.05;;;;;;;3.84;71.30;100468.30;124524;1098;104526;-78
2020/12/14 09:22:31;;;;;;;35.57;23.37;;;;;;;3.88;70.39;100463.66;124525;1098;104602;-81
2020/12/14 09:24:59;;;;;;;27.10;16.63;;;;;;;3.84;69.99;100465.66;124549;1098;104596;-77
2020/12/14 09:27:27;;;;;;;31.10;18.43;;;;;;;3.85;71.25;100464.72;124480;1098;104512;-79
2020/12/14 09:29:56;;;;;;;25.37;14.50;;;;;;;3.82;70.26;100459.64;124539;1098;104606;-77
2020/12/14 09:32:24;;;;;;;24.10;13.50;;;;;;;3.78;70.51;100455.53;124496;1098;104530;-79
2020/12/14 09:34:52;;;;;;;29.57;17.20;;;;;;;3.78;70.51;100458.16;124458;1098;104586;-77
2020/12/14 09:37:21;;;;;;;29.50;17.65;;;;;;;3.82;70.44;100449.09;124472;1098;104779;-80
2020/12/14 09:39:49;;;;;;;29.50;17.85;;;;;;;3.89;70.49;100455.64;124473;1093;104525;-77
2020/12/14 09:42:18;;;;;;;32.83;19.63;;;;;;;3.90;70.52;100457.31;124447;1093;104589;-79
2020/12/14 09:44:46;;;;;;;32.70;19.60;;;;;;;3.88;70.54;100461.86;124419;1098;104590;-77
2020/12/14 09:47:14;;;;;;;31.90;18.73;;;;;;;3.90;70.46;100457.31;124424;1098;104603;-80
2020/12/14 09:49:43;;;;;;;26.53;15.73;;;;;;;3.91;70.39;100448.46;124376;1098;104516;-78
2020/12/14 09:52:11;;;;;;;24.80;14.73;;;;;;;3.96;70.41;100442.84;124416;1098;104531;-78
2020/12/14 09:54:39;;;;;;;26.70;14.83;;;;;;;4.04;71.12;100453.75;124449;1098;104653;-79
2020/12/14 09:57:07;;;;;;;25.70;14.73;;;;;;;4.08;70.08;100460.50;124398;1098;104588;-80
2020/12/14 09:59:35;;;;;;;26.80;16.93;;;;;;;4.11;70.62;100454.16;124444;1098;104614;-78
2020/12/14 10:02:03;;;;;;;28.80;16.60;;;;;;;4.17;70.81;100459.00;124432;1098;104569;-78
2020/12/14 10:04:32;;;;;;;28.53;16.03;;;;;;;4.19;70.29;100450.98;124426;1098;104646;-77
2020/12/14 10:07:00;;;;;;;26.03;15.30;;;;;;;4.15;70.60;100450.34;124423;1098;104600;-79
2020/12/14 10:09:28;;;;;;;29.47;16.73;;;;;;;4.12;70.31;100445.30;124520;1098;104471;-79
2020/12/14 10:11:57;;;;;;;27.53;15.40;;;;;;;4.10;70.71;100437.47;124427;1098;104861;-78
2020/12/14 10:14:25;;;;;;;27.80;16.10;;;;;;;4.10;70.65;100439.28;124441;1098;105143;-78
2020/12/14 10:16:54;;;;;;;29.97;17.53;;;;;;;4.13;70.36;100436.41;124450;1098;104635;-79
2020/12/14 10:19:22;;;;;;;30.25;18.40;;;;;;;4.23;70.50;100433.95;124374;1098;104513;-78
2020/12/14 10:21:50;;;;;;;33.43;19.70;;;;;;;4.30;70.59;100420.21;124425;1098;104503;-78
2020/12/14 10:24:18;;;;;;;33.10;19.87;;;;;;;4.31;70.70;100429.84;124429;1098;104692;-77
2020/12/14 10:26:50;;;;;;;27.87;17.70;;;;;;;4.32;70.51;100430.67;124462;1098;104596;-80
2020/12/14 10:29:18;;;;;;;26.85;15.45;;;;;;;4.37;70.46;100433.84;124442;1098;104609;-78
2020/12/14 10:31:48;;;;;;;24.03;14.43;;;;;;;4.41;70.26;100439.77;124409;1098;104542;-79
2020/12/14 10:34:16;;;;;;;27.73;15.57;;;;;;;4.44;70.21;100435.08;124436;1098;104670;-78
2020/12/14 10:36:47;;;;;;;30.70;18.37;;;;;;;4.49;70.29;100432.12;124455;1098;104499;-78
2020/12/14 10:39:15;;;;;;;28.85;16.65;;;;;;;4.59;70.33;100437.59;124480;1098;104564;-78
2020/12/14 10:41:43;;;;;;;26.10;16.80;;;;;;;4.64;70.67;100423.09;124392;1098;104612;-79
2020/12/14 10:44:11;;;;;;;27.77;16.47;;;;;;;4.66;70.31;100426.47;124437;1098;104656;-77
2020/12/14 10:46:40;;;;;;;29.33;16.80;;;;;;;4.67;70.08;100435.23;124417;1098;104612;-80
2020/12/14 10:49:08;;;;;;;28.67;17.33;;;;;;;4.64;69.99;100435.48;124496;1093;104522;-78
2020/12/14 10:51:37;;;;;;;27.03;16.30;;;;;;;4.66;70.09;100434.40;124652;1093;104503;-78
2020/12/14 10:54:05;;;;;;;35.53;21.70;;;;;;;4.71;69.79;100434.92;124433;1098;104577;-78
2020/12/14 10:56:33;;;;;;;50.43;28.37;;;;;;;4.73;70.01;100434.78;124418;1098;104599;-77
2020/12/14 10:59:01;;;;;;;46.05;28.00;;;;;;;4.75;69.88;100434.68;124457;1093;104512;-78
2020/12/14 11:01:29;;;;;;;54.50;32.00;;;;;;;4.81;70.19;100440.38;124402;1098;104522;-78
2020/12/14 11:03:58;;;;;;;38.23;22.73;;;;;;;4.88;70.17;100443.41;124512;1098;104785;-78
2020/12/14 11:06:33;;;;;;;36.07;21.77;;;;;;;4.92;69.61;100436.94;124412;1098;104608;-79
2020/12/14 11:09:01;;;;;;;45.17;25.13;;;;;;;4.94;69.98;100452.70;124408;1098;104497;-79
2020/12/14 11:11:35;;;;;;;48.47;29.17;;;;;;;4.94;69.81;100436.83;124435;1098;104538;-78
2020/12/14 11:14:04;;;;;;;46.17;30.53;;;;;;;4.91;69.61;100444.03;124441;1098;104685;-78